Time;durP1;ratioP1;P1;durP2;ratioP2;P2;SDS_P1;SDS_P2;PMS_P1;PMS_P2;Temp;Humidity;BMP_temperature;BMP_pressure;BME280_temperature;BME280_humidity;BME280_pressure;Samples;Min_cycle;Max_cycle;Signal;HPM_P1;HPM_P2
2022/08/12 00:44:53;;;;;;;7.93;3.03;;;;;;;21.92;44.49;101716.00;6215463;23;20019;-72
2022/08/12 00:47:19;;;;;;;7.85;2.92;;;;;;;21.96;44.32;101716.25;6215548;23;20151;-70
2022/08/12 00:49:48;;;;;;;9.00;3.80;;;;;;;21.89;44.59;101707.44;6215782;23;20295;-71
2022/08/12 00:52:13;;;;;;;6.85;3.30;;;;;;;21.80;44.49;101709.13;6215065;23;20015;-69
2022/08/12 00:54:43;;;;;;;7.68;3.20;;;;;;;21.72;44.69;101708.59;6213598;23;20012;-68
2022/08/12 00:57:14;;;;;;;7.90;3.53;;;;;;;21.64;44.86;101698.16;6215433;23;20067;-73
2022/08/12 00:59:48;;;;;;;5.72;3.10;;;;;;;21.64;44.83;101709.19;6215670;23;20005;-74
2022/08/12 01:02:24;;;;;;;10.93;3.50;;;;;;;21.62;44.88;101700.38;6210649;23;20016;-73
2022/08/12 01:13:22;;;;;;;6.03;2.85;;;;;;;21.63;44.61;101699.25;6214061;23;20026;-70
2022/08/12 01:15:52;;;;;;;5.97;2.90;;;;;;;21.56;44.86;101704.25;6215204;23;20008;-70
2022/08/12 01:18:26;;;;;;;5.70;3.28;;;;;;;21.52;45.17;101705.91;6215171;23;20437;-69
2022/08/12 01:20:52;;;;;;;6.15;2.97;;;;;;;21.49;45.01;101704.50;6215390;23;20036;-71
2022/08/12 01:23:43;;;;;;;6.10;2.83;;;;;;;21.54;44.82;101703.69;6214189;23;20004;-72
2022/08/12 01:26:15;;;;;;;5.10;2.97;;;;;;;21.46;45.14;101701.47;6214959;23;20258;-72
2022/08/12 01:28:44;;;;;;;6.22;3.67;;;;;;;21.53;45.37;101707.53;6215437;23;20004;-70
2022/08/12 01:31:11;;;;;;;7.03;3.10;;;;;;;21.52;45.35;101705.91;6214560;23;20031;-69
2022/08/12 01:33:58;;;;;;;6.10;2.80;;;;;;;21.53;45.49;101704.78;6214591;23;20004;-70
2022/08/12 01:36:27;;;;;;;7.18;3.25;;;;;;;21.55;45.41;101703.41;6215047;23;20005;-71
2022/08/12 01:38:56;;;;;;;7.50;3.00;;;;;;;21.53;45.26;101705.63;6213631;23;20012;-70
2022/08/12 01:41:24;;;;;;;5.03;2.88;;;;;;;21.49;45.46;101707.25;6212922;23;20004;-70
2022/08/12 01:43:53;;;;;;;9.50;3.53;;;;;;;21.51;45.41;101705.06;6215203;23;20012;-69
2022/08/12 01:46:36;;;;;;;6.22;2.78;;;;;;;21.51;45.20;101709.75;6214597;23;20011;-70
2022/08/12 01:49:33;;;;;;;7.55;3.28;;;;;;;21.53;45.51;101708.38;6214259;23;20114;-69
2022/08/12 01:52:05;;;;;;;5.38;2.85;;;;;;;21.47;45.68;101703.09;6215187;23;20004;-70
2022/08/12 01:54:37;;;;;;;7.50;3.33;;;;;;;21.46;45.88;101699.53;6188488;23;20100;-69
2022/08/12 01:57:12;;;;;;;5.32;3.30;;;;;;;21.46;45.43;101704.22;6214224;23;20016;-69
2022/08/12 01:59:46;;;;;;;4.85;2.88;;;;;;;21.40;45.78;101704.22;6188066;23;20009;-70
2022/08/12 02:02:38;;;;;;;8.63;3.50;;;;;;;21.42;46.03;101693.78;6210638;23;20437;-69
2022/08/12 02:11:22;;;;;;;8.80;3.30;;;;;;;21.33;46.26;101694.59;6214464;23;20039;-68
2022/08/12 02:14:05;;;;;;;6.13;3.05;;;;;;;21.31;46.02;101691.31;6214972;23;20000;-69
2022/08/12 02:17:11;;;;;;;6.10;3.22;;;;;;;21.33;46.06;101689.09;6214983;23;20066;-69
2022/08/12 02:19:54;;;;;;;10.02;3.45;;;;;;;21.24;46.33;101694.31;6214279;23;20070;-69
2022/08/12 02:22:38;;;;;;;6.43;3.47;;;;;;;21.14;46.87;101692.41;6214646;23;20005;-69
2022/08/12 02:25:28;;;;;;;7.07;3.35;;;;;;;21.21;46.44;101692.13;6214862;23;20001;-69
2022/08/12 02:27:55;;;;;;;6.97;3.45;;;;;;;21.15;47.55;101682.22;6214494;23;20554;-69
2022/08/12 02:30:23;;;;;;;6.72;3.50;;;;;;;21.10;47.29;101685.00;6214141;23;20012;-69
2022/08/12 02:32:52;;;;;;;5.43;3.20;;;;;;;21.07;47.55;101680.84;6214857;23;20001;-69
2022/08/12 02:35:21;;;;;;;8.25;3.40;;;;;;;21.08;47.48;101678.94;6214524;23;20016;-69
2022/08/12 02:37:49;;;;;;;6.25;3.20;;;;;;;21.02;48.04;101676.19;6214390;23;20453;-69
2022/08/12 02:40:17;;;;;;;5.82;3.53;;;;;;;20.99;47.75;101679.50;6214137;23;20001;-69
2022/08/12 02:43:11;;;;;;;6.03;3.42;;;;;;;20.99;47.29;101685.00;6188272;23;20044;-69
2022/08/12 02:45:51;;;;;;;7.90;3.72;;;;;;;20.89;47.96;101682.22;6162908;23;20008;-69
2022/08/12 02:48:25;;;;;;;8.65;3.35;;;;;;;20.88;48.04;101678.66;6213189;23;20072;-70
2022/08/12 02:50:52;;;;;;;4.65;3.22;;;;;;;20.83;48.40;101681.41;6214335;23;20009;-69
2022/08/12 02:53:17;;;;;;;5.20;3.30;;;;;;;20.74;48.79;101676.72;6214207;23;20430;-69
2022/08/12 02:55:44;;;;;;;10.68;3.60;;;;;;;20.78;49.02;101683.34;6214493;23;20004;-71
2022/08/12 02:58:11;;;;;;;10.88;3.58;;;;;;;20.70;49.26;101682.78;6214517;23;20008;-71
2022/08/12 03:00:39;;;;;;;6.68;3.55;;;;;;;20.73;49.20;101686.91;6212260;23;20062;-70
2022/08/12 03:03:07;;;;;;;10.95;3.60;;;;;;;20.66;49.15;101678.09;6216165;23;20118;-72
2022/08/12 03:05:45;;;;;;;6.03;4.07;;;;;;;20.67;49.06;101677.81;6216380;23;20051;-71
2022/08/12 03:08:14;;;;;;;9.63;3.85;;;;;;;20.59;49.37;101681.06;6215556;23;20330;-70
2022/08/12 03:10:42;;;;;;;8.27;4.28;;;;;;;20.56;49.61;101676.09;6216272;23;20008;-69
2022/08/12 03:13:10;;;;;;;7.25;3.88;;;;;;;20.51;49.70;101684.34;6189713;23;20004;-70
2022/08/12 03:15:35;;;;;;;6.10;3.90;;;;;;;20.46;50.12;101671.44;6216621;23;20078;-68
2022/08/12 03:18:16;;;;;;;11.63;4.40;;;;;;;20.45;49.66;101672.53;6216217;23;20422;-69
2022/08/12 03:20:41;;;;;;;7.37;3.97;;;;;;;20.44;50.06;101662.63;6215805;23;20005;-69
2022/08/12 03:23:12;;;;;;;6.82;3.83;;;;;;;20.39;49.98;101665.38;6216618;23;20000;-73
2022/08/12 03:25:41;;;;;;;6.95;4.20;;;;;;;20.38;50.25;101668.38;6216412;23;20004;-71
2022/08/12 03:28:48;;;;;;;8.25;4.30;;;;;;;20.32;50.03;101664.78;6216014;23;20012;-71
2022/08/12 03:31:02;;;;;;;6.82;4.32;;;;;;;20.30;50.76;101673.31;6215487;23;20020;-68
2022/08/12 03:33:33;;;;;;;10.50;4.00;;;;;;;20.30;50.89;101665.06;6189444;23;20488;-68
2022/08/12 03:36:00;;;;;;;6.88;4.22;;;;;;;20.30;51.07;101665.06;6216492;23;20016;-68
2022/08/12 03:38:28;;;;;;;9.30;4.15;;;;;;;20.27;51.04;101656.53;6215677;23;20007;-69
2022/08/12 04:00:54;;;;;;;7.82;4.60;;;;;;;19.91;52.38;101659.97;6211740;23;20031;-70
2022/08/12 04:06:07;;;;;;;11.93;5.15;;;;;;;19.87;52.73;101663.53;6215855;23;20015;-72
2022/08/12 04:08:33;;;;;;;9.95;4.95;;;;;;;19.82;52.96;101667.94;6215089;23;20028;-71
2022/08/12 04:13:44;;;;;;;9.10;5.45;;;;;;;19.77;53.47;101669.78;6215871;23;20019;-71
2022/08/12 04:16:09;;;;;;;13.70;5.20;;;;;;;19.77;52.84;101669.78;6216092;23;20100;-69
2022/08/12 04:18:37;;;;;;;6.13;4.68;;;;;;;19.74;53.28;101671.13;6215315;23;20020;-71
2022/08/12 04:21:08;;;;;;;10.88;5.00;;;;;;;19.71;53.29;101673.59;6215679;23;20004;-72
2022/08/12 04:23:34;;;;;;;7.30;5.30;;;;;;;19.71;53.64;101682.66;6215799;23;20005;-71
2022/08/12 04:25:59;;;;;;;9.65;5.30;;;;;;;19.63;53.94;101675.75;6189253;23;20001;-72
2022/08/12 04:28:27;;;;;;;8.05;5.35;;;;;;;19.61;53.87;101672.44;6215196;23;20000;-69
2022/08/12 04:30:55;;;;;;;7.60;5.32;;;;;;;19.66;53.88;101675.22;6215530;23;20389;-71
2022/08/12 04:33:20;;;;;;;12.13;5.13;;;;;;;19.58;54.39;101675.72;6215597;23;20063;-73
2022/08/12 04:35:46;;;;;;;13.18;5.50;;;;;;;19.53;54.59;101666.63;6215938;23;20538;-74
2022/08/12 04:38:12;;;;;;;15.93;5.90;;;;;;;19.54;54.52;101671.03;6215302;23;20012;-74
2022/08/12 04:40:38;;;;;;;13.43;5.57;;;;;;;19.55;54.34;101681.75;6215145;23;20086;-71
2022/08/12 04:43:03;;;;;;;15.35;6.43;;;;;;;19.54;54.78;101671.84;6215834;23;20008;-72
2022/08/12 04:45:36;;;;;;;15.52;6.13;;;;;;;19.53;54.79;101672.94;6188878;23;20009;-71
2022/08/12 04:48:02;;;;;;;17.50;6.18;;;;;;;19.48;55.33;101676.47;6188701;23;20005;-72
2022/08/12 04:50:27;;;;;;;13.10;6.35;;;;;;;19.51;54.87;101668.81;6214997;23;20373;-71
2022/08/12 04:52:52;;;;;;;19.42;7.25;;;;;;;19.44;55.19;101669.88;6215716;23;20031;-72
2022/08/12 04:55:18;;;;;;;16.42;6.10;;;;;;;19.41;55.55;101677.81;6215488;23;20370;-70
2022/08/12 04:57:43;;;;;;;18.88;6.40;;;;;;;19.41;55.76;101672.31;6214918;23;20000;-69
2022/08/12 05:00:11;;;;;;;15.95;6.25;;;;;;;19.48;55.52;101679.22;6215121;23;20010;-73
2022/08/12 05:02:36;;;;;;;15.10;6.05;;;;;;;19.41;55.96;101677.81;6211161;23;20017;-72
2022/08/12 05:05:03;;;;;;;8.13;5.60;;;;;;;19.42;56.02;101679.47;6215570;23;20013;-69
2022/08/12 05:07:29;;;;;;;8.68;5.65;;;;;;;19.42;55.84;101673.97;6214528;23;20004;-72
2022/08/12 05:09:54;;;;;;;8.63;5.65;;;;;;;19.47;55.77;101666.63;6214969;23;20321;-71
2022/08/12 05:12:19;;;;;;;13.57;6.10;;;;;;;19.46;55.78;101669.59;6215317;23;20028;-69
2022/08/12 05:14:45;;;;;;;10.05;6.28;;;;;;;19.39;56.05;101663.53;6215089;23;20000;-70
2022/08/12 05:17:11;;;;;;;13.95;6.07;;;;;;;19.43;56.26;101667.38;6215158;23;20028;-71
2022/08/12 05:20:08;;;;;;;13.98;5.78;;;;;;;19.50;55.57;101669.91;6213760;23;20005;-70
2022/08/12 05:22:44;;;;;;;11.45;6.25;;;;;;;19.43;56.18;101668.22;6214123;23;20016;-69
2022/08/12 05:25:10;;;;;;;12.15;6.20;;;;;;;19.41;56.33;101672.31;6215490;23;20027;-71
2022/08/12 05:27:37;;;;;;;11.85;5.90;;;;;;;19.40;56.70;101676.16;6214343;23;20001;-71
2022/08/12 05:30:03;;;;;;;19.25;6.22;;;;;;;19.44;56.46;101675.34;6214377;23;20030;-70
2022/08/12 05:32:28;;;;;;;9.82;6.07;;;;;;;19.40;56.96;101684.38;6214811;23;20001;-71
2022/08/12 05:34:53;;;;;;;10.98;5.70;;;;;;;19.44;56.70;101689.06;6215283;23;20015;-70
2022/08/12 05:37:21;;;;;;;10.90;6.20;;;;;;;19.48;56.32;101678.41;6187849;23;20005;-72
2022/08/12 05:39:46;;;;;;;12.20;6.00;;;;;;;19.46;57.00;101691.56;6214878;23;20012;-73
2022/08/12 05:42:11;;;;;;;11.38;5.85;;;;;;;19.53;56.41;101683.91;6215262;23;20000;-72
2022/08/12 05:44:37;;;;;;;10.30;5.82;;;;;;;19.53;56.73;101686.66;6214843;23;20009;-73
2022/08/12 05:47:03;;;;;;;9.25;6.10;;;;;;;19.56;56.69;101690.81;6215286;23;20027;-75
2022/08/12 05:49:28;;;;;;;16.77;6.20;;;;;;;19.55;57.14;101694.63;6214063;23;20076;-72
2022/08/12 05:51:54;;;;;;;10.32;6.00;;;;;;;19.61;56.75;101693.56;6214311;23;20086;-72
2022/08/12 05:54:20;;;;;;;11.02;6.30;;;;;;;19.68;56.64;101694.16;6214898;23;20496;-71
2022/08/12 05:56:47;;;;;;;15.25;6.05;;;;;;;19.71;56.40;101698.31;6214222;23;20005;-72
2022/08/12 05:59:12;;;;;;;11.98;6.50;;;;;;;19.71;56.72;101693.63;6186367;23;20020;-71
2022/08/12 06:01:39;;;;;;;13.15;6.50;;;;;;;19.80;56.59;101697.56;6211335;23;20016;-72
2022/08/12 06:04:05;;;;;;;12.38;6.18;;;;;;;19.86;56.56;101698.41;6215088;23;20087;-69
2022/08/12 06:06:37;;;;;;;17.20;6.85;;;;;;;19.92;56.59;101702.84;6187958;23;20043;-69
2022/08/12 06:09:03;;;;;;;12.93;6.30;;;;;;;19.98;56.44;101698.22;6187560;23;20004;-69
2022/08/12 06:11:28;;;;;;;9.48;5.97;;;;;;;20.05;56.34;101698.78;6214649;23;20004;-72
2022/08/12 06:13:54;;;;;;;12.57;6.40;;;;;;;20.07;56.64;101702.09;6214886;23;20015;-70
2022/08/12 06:16:21;;;;;;;11.38;6.53;;;;;;;20.15;56.18;101708.97;6214685;23;20004;-70
2022/08/12 06:18:47;;;;;;;13.38;6.07;;;;;;;20.23;56.09;101704.88;6214103;23;20012;-71
2022/08/12 06:21:16;;;;;;;16.95;6.30;;;;;;;20.25;56.02;101703.53;6214925;23;20071;-70
2022/08/12 06:23:44;;;;;;;11.98;6.00;;;;;;;20.35;55.95;101705.47;6214676;23;20075;-71
2022/08/12 06:26:11;;;;;;;8.70;5.93;;;;;;;20.43;55.83;101715.16;6214858;23;20005;-70
2022/08/12 06:28:43;;;;;;;13.40;5.75;;;;;;;20.48;55.66;101704.16;6213369;23;20009;-70
2022/08/12 06:31:14;;;;;;;10.60;6.20;;;;;;;20.54;55.78;101705.81;6214094;23;20004;-70
2022/08/12 06:33:43;;;;;;;11.35;6.28;;;;;;;20.62;55.36;101697.03;6187351;23;20024;-70
2022/08/12 06:36:12;;;;;;;13.63;6.20;;;;;;;20.71;54.87;101691.84;6214568;23;20005;-71
2022/08/12 06:38:39;;;;;;;12.52;6.13;;;;;;;20.81;55.39;101693.78;6213949;23;20015;-69
2022/08/12 06:43:51;;;;;;;12.02;5.68;;;;;;;20.94;54.81;101692.41;6214458;23;20020;-70
2022/08/12 06:46:18;;;;;;;10.13;5.72;;;;;;;21.04;54.17;101693.22;6187619;23;20008;-70
2022/08/12 06:48:43;;;;;;;9.35;5.55;;;;;;;21.09;54.17;101694.34;6214491;23;20008;-70
2022/08/12 06:51:10;;;;;;;10.40;5.53;;;;;;;21.16;53.92;101700.41;6214286;23;20311;-69
2022/08/12 06:53:37;;;;;;;14.30;5.57;;;;;;;21.24;53.73;101691.56;6214077;23;20016;-70
2022/08/12 06:56:02;;;;;;;11.38;5.55;;;;;;;21.31;53.75;101691.31;6214618;23;20008;-72
2022/08/12 06:58:30;;;;;;;7.78;4.80;;;;;;;21.40;52.90;101695.16;6214393;23;20144;-73
2022/08/12 07:00:56;;;;;;;12.90;5.30;;;;;;;21.48;53.30;101691.00;6210383;23;20024;-75
2022/08/12 07:03:29;;;;;;;10.80;5.13;;;;;;;21.56;52.73;101685.78;6186130;23;20449;-72
2022/08/12 07:05:56;;;;;;;10.23;4.82;;;;;;;21.64;52.13;101686.34;6214687;23;20011;-69
2022/08/12 07:08:27;;;;;;;9.90;5.03;;;;;;;21.72;51.96;101686.56;6214711;23;20005;-69
2022/08/12 07:10:58;;;;;;;12.25;4.88;;;;;;;21.81;51.82;101688.75;6214174;23;20012;-71
2022/08/12 07:13:27;;;;;;;12.07;5.05;;;;;;;21.88;51.25;101690.09;6213327;23;20005;-70
2022/08/12 07:15:55;;;;;;;11.70;4.93;;;;;;;21.96;51.31;101680.41;6214645;23;20004;-71
2022/08/12 07:18:28;;;;;;;6.95;4.20;;;;;;;22.02;50.93;101681.22;6214635;23;20015;-73
2022/08/12 07:20:56;;;;;;;10.73;4.93;;;;;;;22.10;50.84;101675.97;6187998;23;20008;-74
2022/08/12 07:23:23;;;;;;;9.55;4.50;;;;;;;22.19;50.78;101689.94;6186741;23;20012;-72
2022/08/12 07:25:48;;;;;;;10.57;4.63;;;;;;;22.29;50.17;101691.84;6214348;23;20005;-74
2022/08/12 07:28:17;;;;;;;5.70;4.20;;;;;;;22.37;50.23;101690.47;6188102;23;20440;-79
2022/08/12 07:30:47;;;;;;;7.10;4.20;;;;;;;22.47;50.25;101698.69;6187554;23;20004;-76
2022/08/12 07:33:15;;;;;;;7.78;3.80;;;;;;;22.55;49.07;101702.75;6186789;23;20005;-76
2022/08/12 07:35:46;;;;;;;8.40;3.75;;;;;;;22.62;49.54;101697.75;6186998;23;20016;-76
2022/08/12 07:38:25;;;;;;;13.02;4.25;;;;;;;22.68;48.71;101704.88;6214689;23;20417;-75
2022/08/12 07:40:54;;;;;;;9.48;4.03;;;;;;;22.75;48.90;101701.78;6187673;23;20046;-74
2022/08/12 07:43:20;;;;;;;9.77;4.10;;;;;;;22.84;47.69;101705.59;6187090;23;20359;-73
2022/08/12 07:45:46;;;;;;;16.60;3.83;;;;;;;22.92;47.81;101701.41;6215001;23;20088;-79
2022/08/12 07:48:11;;;;;;;8.52;3.85;;;;;;;23.01;47.53;101705.19;6190061;23;20040;-75
2022/08/12 07:50:37;;;;;;;14.70;3.70;;;;;;;23.10;47.24;101699.88;6214973;23;20317;-73
2022/08/12 07:53:02;;;;;;;12.38;3.95;;;;;;;23.15;46.74;101706.19;6215695;23;20050;-73
2022/08/12 07:55:27;;;;;;;14.45;4.13;;;;;;;23.24;46.45;101694.53;6215662;23;20369;-74
2022/08/12 07:57:58;;;;;;;8.05;3.80;;;;;;;23.34;46.86;101698.03;6216561;23;20004;-75
2022/08/12 08:00:29;;;;;;;12.93;3.80;;;;;;;23.41;46.95;101699.63;6214922;23;20004;-72
2022/08/12 08:02:54;;;;;;;8.23;3.55;;;;;;;23.45;46.36;101703.47;6212473;23;20009;-73
2022/08/12 08:05:22;;;;;;;5.93;3.67;;;;;;;23.52;46.26;101707.53;6189609;23;20088;-72
2022/08/12 08:07:47;;;;;;;9.95;3.50;;;;;;;23.54;46.19;101712.75;6188687;23;20429;-70
2022/08/12 08:10:13;;;;;;;10.40;3.60;;;;;;;23.70;45.96;101713.41;6190281;23;20092;-72
2022/08/12 08:12:53;;;;;;;8.43;3.88;;;;;;;23.79;44.96;101713.59;6215656;23;20009;-73
2022/08/12 08:15:27;;;;;;;7.63;3.60;;;;;;;23.85;45.12;101707.75;6190726;23;20028;-74
2022/08/12 08:18:04;;;;;;;12.43;3.97;;;;;;;23.89;44.80;101714.31;6188963;23;20061;-78
2022/08/12 08:20:33;;;;;;;12.82;4.20;;;;;;;23.92;45.25;101712.91;6216285;23;20005;-73
2022/08/12 08:23:05;;;;;;;7.28;3.58;;;;;;;24.06;45.20;101710.25;6188105;23;20004;-74
2022/08/12 08:25:31;;;;;;;10.35;3.38;;;;;;;24.17;44.38;101714.53;6214528;23;20000;-73
2022/08/12 08:28:23;;;;;;;9.23;3.67;;;;;;;24.24;45.00;101717.75;6214616;23;20012;-72
2022/08/12 08:30:48;;;;;;;9.70;3.50;;;;;;;24.33;43.68;101714.34;6209766;23;20016;-71
2022/08/12 08:33:15;;;;;;;8.48;3.25;;;;;;;24.47;43.01;101719.94;6215551;23;20005;-71
2022/08/12 08:35:41;;;;;;;6.50;3.30;;;;;;;24.54;43.24;101712.91;6188321;23;20322;-72
2022/08/12 08:38:07;;;;;;;10.90;3.50;;;;;;;24.63;42.78;101710.34;6215171;23;20373;-71
2022/08/12 08:43:19;;;;;;;6.57;3.50;;;;;;;24.69;43.19;101713.84;6215579;23;20020;-71
2022/08/12 08:45:44;;;;;;;12.70;3.40;;;;;;;24.74;42.16;101722.06;6214822;23;20005;-73
2022/08/12 08:48:11;;;;;;;9.70;3.40;;;;;;;24.78;41.97;101717.59;6188558;23;20005;-72
2022/08/12 08:50:36;;;;;;;10.75;3.22;;;;;;;24.83;42.42;101709.19;6214847;23;20004;-72
2022/08/12 08:53:01;;;;;;;7.97;2.92;;;;;;;24.88;41.00;101711.91;6213525;23;20019;-70
2022/08/12 08:55:27;;;;;;;8.60;3.38;;;;;;;24.94;41.60;101716.22;6215664;23;20087;-73
2022/08/12 08:57:53;;;;;;;22.42;4.20;;;;;;;25.09;41.05;101714.31;6215051;23;20377;-71
2022/08/12 09:00:19;;;;;;;8.18;3.05;;;;;;;25.20;40.90;101718.56;6215902;23;20007;-71
2022/08/12 09:02:46;;;;;;;9.48;3.65;;;;;;;25.22;40.07;101716.31;6210902;23;20095;-73
2022/08/12 09:05:12;;;;;;;7.43;3.30;;;;;;;25.45;40.08;101719.25;6214973;23;20091;-73
2022/08/12 09:07:45;;;;;;;13.93;3.10;;;;;;;25.42;40.12;101709.59;6214860;23;20011;-74
2022/08/12 09:10:12;;;;;;;7.22;3.42;;;;;;;25.53;40.16;101710.25;6215603;23;20008;-71
2022/08/12 09:15:25;;;;;;;8.73;3.35;;;;;;;25.69;39.88;101708.00;6215227;23;20074;-72
2022/08/12 09:17:54;;;;;;;10.30;3.10;;;;;;;25.74;38.47;101710.69;6214794;23;20004;-71
2022/08/12 09:20:20;;;;;;;9.13;2.80;;;;;;;25.80;38.03;101705.84;6215186;23;20000;-73
2022/08/12 09:22:46;;;;;;;7.32;3.28;;;;;;;25.93;38.97;101702.25;6214594;23;20005;-71
2022/08/12 09:25:11;;;;;;;9.40;3.20;;;;;;;25.90;38.16;101708.41;6214925;23;20437;-72
2022/08/12 09:27:37;;;;;;;8.13;2.92;;;;;;;26.04;37.94;101700.09;6214943;23;20000;-72
2022/08/12 09:30:02;;;;;;;12.13;2.85;;;;;;;26.10;36.81;101706.38;6188708;23;20011;-73
2022/08/12 09:32:28;;;;;;;12.55;3.20;;;;;;;26.10;37.03;101704.41;6214880;23;20422;-72
2022/08/12 09:34:53;;;;;;;8.27;2.90;;;;;;;26.25;38.14;101703.25;6213808;23;20009;-73
2022/08/12 09:37:18;;;;;;;10.35;2.83;;;;;;;26.32;37.31;101700.88;6187607;23;20104;-72
2022/08/12 09:39:44;;;;;;;7.93;3.00;;;;;;;26.52;36.54;101696.00;6213851;23;20008;-72
2022/08/12 09:45:21;;;;;;;7.65;2.70;;;;;;;26.72;36.24;101693.91;6214222;23;20048;-72
2022/08/12 09:47:47;;;;;;;8.18;2.78;;;;;;;26.88;36.30;101689.63;6214116;23;20004;-72
2022/08/12 09:50:15;;;;;;;6.28;2.70;;;;;;;26.90;34.79;101679.00;6213118;23;20008;-69
2022/08/12 09:52:41;;;;;;;7.78;2.53;;;;;;;26.99;35.80;101692.97;6188017;23;20001;-69
2022/08/12 09:55:09;;;;;;;8.13;2.85;;;;;;;27.03;35.65;101680.91;6215250;23;20043;-72
2022/08/12 09:57:36;;;;;;;8.73;2.50;;;;;;;27.16;35.84;101681.97;6214787;23;20004;-74
2022/08/12 10:00:03;;;;;;;8.82;2.80;;;;;;;27.29;35.52;101680.22;6187988;23;20147;-71
2022/08/12 10:02:29;;;;;;;6.18;2.72;;;;;;;27.24;34.77;101666.50;6183942;23;20020;-70
2022/08/12 10:04:56;;;;;;;7.45;2.72;;;;;;;27.29;34.99;101671.91;6214390;23;20019;-72
2022/08/12 10:07:22;;;;;;;9.65;2.75;;;;;;;27.35;34.91;101675.41;6188296;23;20464;-71
2022/08/12 10:09:49;;;;;;;16.83;3.30;;;;;;;27.34;35.74;101671.81;6213213;23;20004;-72
2022/08/12 10:14:59;;;;;;;4.28;2.42;;;;;;;27.54;34.16;101670.41;6214620;23;20019;-74
2022/08/12 10:17:24;;;;;;;8.57;2.40;;;;;;;27.54;33.78;101666.81;6188427;23;20005;-72
2022/08/12 10:19:51;;;;;;;9.63;2.35;;;;;;;27.57;32.92;101666.19;6187391;23;20000;-73
2022/08/12 10:22:16;;;;;;;8.73;2.85;;;;;;;27.74;33.46;101666.22;6188241;23;20326;-73
2022/08/12 10:24:42;;;;;;;6.43;2.70;;;;;;;27.87;33.28;101653.34;6214557;23;20008;-74
2022/08/12 10:30:13;;;;;;;16.30;2.78;;;;;;;27.99;32.18;101649.13;6122538;23;20016;-72
2022/08/12 10:32:38;;;;;;;6.70;2.47;;;;;;;28.01;31.74;101655.22;6122564;23;20107;-73
2022/08/12 10:35:04;;;;;;;8.05;2.58;;;;;;;28.18;32.45;101652.44;6156227;23;20096;-73
2022/08/12 10:37:29;;;;;;;10.57;2.85;;;;;;;28.22;31.73;101635.94;6187804;23;20076;-72
2022/08/12 10:39:55;;;;;;;4.10;2.20;;;;;;;28.23;30.86;101648.66;6213888;23;20062;-73
2022/08/12 10:45:06;;;;;;;7.10;2.70;;;;;;;28.38;30.63;101639.81;6215175;23;20020;-72
2022/08/12 10:47:34;;;;;;;5.38;2.47;;;;;;;28.40;31.14;101645.06;6188179;23;20012;-74
2022/08/12 10:50:00;;;;;;;4.57;2.50;;;;;;;28.48;31.83;101641.47;6214161;23;20001;-75
2022/08/12 10:52:29;;;;;;;7.93;2.38;;;;;;;28.55;31.72;101629.84;6188260;23;20009;-74
2022/08/12 10:54:55;;;;;;;4.75;2.33;;;;;;;28.64;30.90;101634.28;6213604;23;20450;-72
2022/08/12 10:57:25;;;;;;;5.25;2.53;;;;;;;28.74;31.10;101630.34;6214084;23;20015;-72
2022/08/12 10:59:53;;;;;;;7.13;2.40;;;;;;;28.74;29.53;101619.19;6213703;23;20086;-72
2022/08/12 11:02:21;;;;;;;6.85;2.38;;;;;;;28.86;29.56;101623.28;6209945;23;20029;-73
2022/08/12 11:04:47;;;;;;;4.15;2.33;;;;;;;28.76;30.34;101632.78;6187449;23;20039;-73
2022/08/12 11:07:13;;;;;;;6.88;2.50;;;;;;;28.83;30.08;101619.19;6188089;23;20374;-75
2022/08/12 11:09:40;;;;;;;7.55;2.42;;;;;;;28.87;29.90;101611.00;6187535;23;20063;-72
2022/08/12 11:12:05;;;;;;;4.88;2.33;;;;;;;28.90;30.68;101610.34;6213372;23;19997;-75
2022/08/12 11:14:33;;;;;;;3.45;2.25;;;;;;;28.98;30.88;101615.84;6188557;23;20001;-72
2022/08/12 11:17:01;;;;;;;4.25;2.53;;;;;;;29.13;30.04;101610.91;6187597;23;20013;-72
2022/08/12 11:19:28;;;;;;;7.55;2.60;;;;;;;29.22;29.68;101608.13;6214270;23;20008;-74
2022/08/12 11:21:55;;;;;;;9.23;2.55;;;;;;;29.29;30.07;101602.81;6188741;23;20493;-73
2022/08/12 11:24:24;;;;;;;5.38;2.50;;;;;;;29.27;29.89;101605.94;6189879;23;20083;-70
2022/08/12 11:26:51;;;;;;;8.37;2.53;;;;;;;29.26;29.84;101606.28;6216265;23;20008;-70
2022/08/12 11:29:22;;;;;;;10.93;2.90;;;;;;;29.33;30.42;101593.47;6189820;23;20001;-72
2022/08/12 11:31:47;;;;;;;5.15;2.40;;;;;;;29.32;29.20;101597.41;6188544;23;20329;-72
2022/08/12 11:34:14;;;;;;;5.90;2.78;;;;;;;29.45;29.21;101601.09;6189351;23;20009;-72
2022/08/12 11:36:51;;;;;;;11.80;2.80;;;;;;;29.55;29.87;101597.13;6216119;23;20015;-71
2022/08/12 11:39:17;;;;;;;8.93;2.78;;;;;;;29.61;29.97;101594.97;6216130;23;20433;-70
2022/08/12 11:41:43;;;;;;;9.05;2.58;;;;;;;29.56;28.56;101589.56;6215371;23;20076;-75
2022/08/12 11:44:08;;;;;;;4.78;2.50;;;;;;;29.60;28.99;101579.38;6189328;23;20083;-75
2022/08/12 11:46:38;;;;;;;9.30;2.60;;;;;;;29.57;29.25;101578.06;6189741;23;20012;-73
2022/08/12 11:49:07;;;;;;;6.32;2.53;;;;;;;29.67;29.89;101574.91;6189723;23;20031;-74
2022/08/12 11:51:33;;;;;;;5.97;2.30;;;;;;;29.82;29.49;101570.72;6215512;23;20083;-72
2022/08/12 11:54:00;;;;;;;8.65;2.47;;;;;;;29.93;29.45;101575.91;6215667;23;20001;-71
2022/08/12 11:56:25;;;;;;;6.22;2.50;;;;;;;29.97;28.17;101579.63;6214914;23;20001;-70
2022/08/12 11:58:51;;;;;;;6.72;2.25;;;;;;;29.97;27.48;101576.84;6214989;23;20319;-71
2022/08/12 12:01:16;;;;;;;3.88;2.25;;;;;;;30.07;28.08;101578.41;6211804;23;20017;-71
2022/08/12 12:03:42;;;;;;;4.63;2.40;;;;;;;30.16;28.10;101565.19;6215496;23;20015;-69
2022/08/12 12:06:08;;;;;;;4.25;2.50;;;;;;;30.21;28.06;101560.22;6215841;23;20009;-72
2022/08/12 12:08:33;;;;;;;8.88;2.45;;;;;;;30.27;28.19;101555.25;6189071;23;20008;-73
2022/08/12 12:10:58;;;;;;;6.78;2.22;;;;;;;30.33;28.46;101555.84;6215947;23;20415;-71
2022/08/12 12:13:24;;;;;;;4.50;2.28;;;;;;;30.40;27.53;101562.53;6189444;23;20009;-70
2022/08/12 12:15:49;;;;;;;6.38;2.47;;;;;;;30.45;26.66;101558.69;6215487;23;20009;-70
2022/08/12 12:18:19;;;;;;;4.07;2.10;;;;;;;30.56;27.34;101548.75;6187994;23;20004;-70
2022/08/12 12:20:44;;;;;;;5.55;2.30;;;;;;;30.70;27.58;101554.00;6215880;23;20011;-71
2022/08/12 12:23:09;;;;;;;8.20;2.40;;;;;;;30.74;27.12;101546.56;6216023;23;20079;-70
2022/08/12 12:25:35;;;;;;;3.93;2.20;;;;;;;31.00;27.93;101550.25;6215944;23;20001;-69
2022/08/12 12:28:00;;;;;;;3.43;2.10;;;;;;;31.03;27.19;101549.56;6215424;23;20298;-70
2022/08/12 12:30:29;;;;;;;8.60;2.43;;;;;;;31.10;26.91;101556.19;6215594;23;20262;-71
2022/08/12 12:32:56;;;;;;;4.65;2.58;;;;;;;31.09;26.38;101551.75;6188784;23;20254;-72
2022/08/12 12:35:21;;;;;;;9.90;2.45;;;;;;;31.12;25.92;101541.88;6188872;23;20091;-72
2022/08/12 12:38:00;;;;;;;4.32;2.17;;;;;;;31.17;25.87;101533.22;6187185;23;20047;-72
2022/08/12 12:40:28;;;;;;;10.55;2.58;;;;;;;31.16;25.74;101537.22;6187817;23;20434;-71
2022/08/12 12:42:54;;;;;;;7.00;2.50;;;;;;;31.24;26.39;101522.28;6214406;23;20054;-71
2022/08/12 12:45:21;;;;;;;9.18;2.60;;;;;;;31.31;25.54;101532.88;6188841;23;20043;-72
2022/08/12 12:48:00;;;;;;;6.63;2.60;;;;;;;31.45;26.44;101543.72;6188083;23;20430;-73
2022/08/12 12:50:27;;;;;;;5.32;2.80;;;;;;;31.50;26.39;101535.06;6215731;23;20001;-72
2022/08/12 12:52:53;;;;;;;6.00;2.58;;;;;;;31.60;25.85;101520.63;6215623;23;20005;-71
2022/08/12 12:55:20;;;;;;;6.18;2.40;;;;;;;31.46;25.25;101517.34;6215702;23;20000;-71
2022/08/12 12:57:45;;;;;;;10.75;2.65;;;;;;;31.52;26.04;101517.94;6188080;23;20387;-72
2022/08/12 13:00:15;;;;;;;7.05;2.63;;;;;;;31.54;25.61;101522.03;6215648;23;20004;-73
2022/08/12 13:02:49;;;;;;;9.07;2.58;;;;;;;31.68;26.16;101518.88;6184308;23;20047;-71
2022/08/12 13:05:17;;;;;;;8.73;2.75;;;;;;;31.67;26.01;101502.44;6214789;23;20071;-73
2022/08/12 13:07:43;;;;;;;7.78;3.05;;;;;;;31.66;25.90;101510.03;6188829;23;20307;-72
2022/08/12 13:10:09;;;;;;;9.98;2.80;;;;;;;31.69;26.28;101511.28;6215393;23;20007;-74
2022/08/12 13:12:34;;;;;;;7.82;2.88;;;;;;;31.78;26.63;101511.94;6215552;23;20008;-74